sensor_id;sensor_type;location;lat;lon;timestamp;temperature;humidity
47660;DHT22;33403;43.608;1.458;2023-09-19T00:00:38;19.60;99.90
47660;DHT22;33403;43.608;1.458;2023-09-19T00:03:06;19.60;99.90
47660;DHT22;33403;43.608;1.458;2023-09-19T00:05:34;19.50;99.90
47660;DHT22;33403;43.608;1.458;2023-09-19T00:08:00;19.50;99.90
47660;DHT22;33403;43.608;1.458;2023-09-19T00:10:27;19.50;99.90
47660;DHT22;33403;43.608;1.458;2023-09-19T00:12:57;19.50;99.90
47660;DHT22;33403;43.608;1.458;2023-09-19T00:15:26;19.50;99.90
47660;DHT22;33403;43.608;1.458;2023-09-19T00:17:54;19.50;99.90
47660;DHT22;33403;43.608;1.458;2023-09-19T00:20:20;19.50;99.90
47660;DHT22;33403;43.608;1.458;2023-09-19T00:22:51;19.50;99.90
47660;DHT22;33403;43.608;1.458;2023-09-19T00:25:19;19.50;99.90
47660;DHT22;33403;43.608;1.458;2023-09-19T00:27:46;19.50;99.90
47660;DHT22;33403;43.608;1.458;2023-09-19T00:30:16;19.40;99.90
47660;DHT22;33403;43.608;1.458;2023-09-19T00:32:46;19.50;99.90
47660;DHT22;33403;43.608;1.458;2023-09-19T00:35:15;19.50;99.90
47660;DHT22;33403;43.608;1.458;2023-09-19T00:37:41;19.40;99.90
47660;DHT22;33403;43.608;1.458;2023-09-19T00:40:08;19.50;99.90
47660;DHT22;33403;43.608;1.458;2023-09-19T00:42:45;19.40;99.90
47660;DHT22;33403;43.608;1.458;2023-09-19T00:45:13;19.40;99.90
47660;DHT22;33403;43.608;1.458;2023-09-19T00:47:48;19.50;99.90
47660;DHT22;33403;43.608;1.458;2023-09-19T00:50:20;19.40;99.90
47660;DHT22;33403;43.608;1.458;2023-09-19T00:52:48;19.40;99.90
47660;DHT22;33403;43.608;1.458;2023-09-19T00:55:15;19.50;99.90
47660;DHT22;33403;43.608;1.458;2023-09-19T00:57:42;19.40;99.90
47660;DHT22;33403;43.608;1.458;2023-09-19T01:00:10;19.40;99.90
47660;DHT22;33403;43.608;1.458;2023-09-19T01:02:37;19.30;99.90
47660;DHT22;33403;43.608;1.458;2023-09-19T01:05:03;19.30;99.90
47660;DHT22;33403;43.608;1.458;2023-09-19T01:07:32;19.40;99.90
47660;DHT22;33403;43.608;1.458;2023-09-19T01:10:03;19.30;99.90
47660;DHT22;33403;43.608;1.458;2023-09-19T01:23:28;19.50;99.90
47660;DHT22;33403;43.608;1.458;2023-09-19T01:31:10;19.40;99.90
47660;DHT22;33403;43.608;1.458;2023-09-19T01:33:57;19.30;99.90
47660;DHT22;33403;43.608;1.458;2023-09-19T01:36:23;19.30;99.90
47660;DHT22;33403;43.608;1.458;2023-09-19T01:38:50;19.30;99.90
47660;DHT22;33403;43.608;1.458;2023-09-19T01:41:21;19.20;99.90
47660;DHT22;33403;43.608;1.458;2023-09-19T01:43:51;19.30;99.90
47660;DHT22;33403;43.608;1.458;2023-09-19T01:46:22;19.20;99.90
47660;DHT22;33403;43.608;1.458;2023-09-19T01:49:18;19.20;99.90
47660;DHT22;33403;43.608;1.458;2023-09-19T01:52:11;19.20;99.90
47660;DHT22;33403;43.608;1.458;2023-09-19T01:54:58;19.20;99.90
47660;DHT22;33403;43.608;1.458;2023-09-19T01:57:40;19.20;99.90
47660;DHT22;33403;43.608;1.458;2023-09-19T02:00:10;19.10;99.90
47660;DHT22;33403;43.608;1.458;2023-09-19T02:02:43;19.10;99.90
47660;DHT22;33403;43.608;1.458;2023-09-19T02:05:10;19.10;99.90
47660;DHT22;33403;43.608;1.458;2023-09-19T02:07:36;19.10;99.90
47660;DHT22;33403;43.608;1.458;2023-09-19T02:10:04;19.20;99.90
47660;DHT22;33403;43.608;1.458;2023-09-19T02:12:31;19.20;99.90
47660;DHT22;33403;43.608;1.458;2023-09-19T02:14:58;19.20;99.90
47660;DHT22;33403;43.608;1.458;2023-09-19T02:17:25;19.10;99.90
47660;DHT22;33403;43.608;1.458;2023-09-19T02:19:54;19.10;99.90
47660;DHT22;33403;43.608;1.458;2023-09-19T02:22:23;19.10;99.90
47660;DHT22;33403;43.608;1.458;2023-09-19T02:24:50;19.10;99.90
47660;DHT22;33403;43.608;1.458;2023-09-19T02:27:16;19.10;99.90
47660;DHT22;33403;43.608;1.458;2023-09-19T02:29:43;19.10;99.90
47660;DHT22;33403;43.608;1.458;2023-09-19T02:32:09;19.00;99.90
47660;DHT22;33403;43.608;1.458;2023-09-19T02:34:35;19.00;99.90
47660;DHT22;33403;43.608;1.458;2023-09-19T02:37:03;19.00;99.90
47660;DHT22;33403;43.608;1.458;2023-09-19T02:39:31;19.00;99.90
47660;DHT22;33403;43.608;1.458;2023-09-19T02:41:57;19.00;99.90
47660;DHT22;33403;43.608;1.458;2023-09-19T02:44:23;19.00;99.90
47660;DHT22;33403;43.608;1.458;2023-09-19T02:46:49;19.00;99.90
47660;DHT22;33403;43.608;1.458;2023-09-19T02:49:15;19.00;99.90
47660;DHT22;33403;43.608;1.458;2023-09-19T02:51:41;19.00;99.90
47660;DHT22;33403;43.608;1.458;2023-09-19T02:54:07;19.00;99.90
47660;DHT22;33403;43.608;1.458;2023-09-19T02:56:33;19.00;99.90
47660;DHT22;33403;43.608;1.458;2023-09-19T02:58:59;19.00;99.90
47660;DHT22;33403;43.608;1.458;2023-09-19T03:01:26;19.00;99.90
47660;DHT22;33403;43.608;1.458;2023-09-19T03:03:53;19.00;99.90
47660;DHT22;33403;43.608;1.458;2023-09-19T03:06:19;19.00;99.90
47660;DHT22;33403;43.608;1.458;2023-09-19T03:08:46;19.00;99.90
47660;DHT22;33403;43.608;1.458;2023-09-19T03:11:12;18.90;99.90
47660;DHT22;33403;43.608;1.458;2023-09-19T03:13:40;18.90;99.90
47660;DHT22;33403;43.608;1.458;2023-09-19T03:16:07;18.90;99.90
47660;DHT22;33403;43.608;1.458;2023-09-19T03:18:36;18.90;99.90
47660;DHT22;33403;43.608;1.458;2023-09-19T03:21:01;18.90;99.90
47660;DHT22;33403;43.608;1.458;2023-09-19T03:23:28;18.90;99.90
47660;DHT22;33403;43.608;1.458;2023-09-19T03:25:55;18.80;99.90
47660;DHT22;33403;43.608;1.458;2023-09-19T03:28:21;18.80;99.90
47660;DHT22;33403;43.608;1.458;2023-09-19T03:31:05;18.80;99.90
47660;DHT22;33403;43.608;1.458;2023-09-19T03:33:31;18.80;99.90
47660;DHT22;33403;43.608;1.458;2023-09-19T03:35:58;18.80;99.90
47660;DHT22;33403;43.608;1.458;2023-09-19T03:38:25;18.80;99.90
47660;DHT22;33403;43.608;1.458;2023-09-19T03:40:51;18.80;99.90
47660;DHT22;33403;43.608;1.458;2023-09-19T03:43:16;18.70;99.90
47660;DHT22;33403;43.608;1.458;2023-09-19T03:45:43;18.70;99.90
47660;DHT22;33403;43.608;1.458;2023-09-19T03:48:09;18.70;99.90
47660;DHT22;33403;43.608;1.458;2023-09-19T03:50:35;18.80;99.90
47660;DHT22;33403;43.608;1.458;2023-09-19T03:53:01;18.80;99.90
47660;DHT22;33403;43.608;1.458;2023-09-19T03:55:27;18.80;99.90
47660;DHT22;33403;43.608;1.458;2023-09-19T03:57:53;18.70;99.90
47660;DHT22;33403;43.608;1.458;2023-09-19T04:00:19;18.70;99.90
47660;DHT22;33403;43.608;1.458;2023-09-19T04:02:48;18.70;99.90
47660;DHT22;33403;43.608;1.458;2023-09-19T04:05:13;18.80;99.90
47660;DHT22;33403;43.608;1.458;2023-09-19T04:07:39;18.70;99.90
47660;DHT22;33403;43.608;1.458;2023-09-19T04:10:05;18.70;99.90
47660;DHT22;33403;43.608;1.458;2023-09-19T04:12:34;18.70;99.90
47660;DHT22;33403;43.608;1.458;2023-09-19T04:14:59;18.70;99.90
47660;DHT22;33403;43.608;1.458;2023-09-19T04:17:25;18.70;99.90
47660;DHT22;33403;43.608;1.458;2023-09-19T04:19:51;18.70;99.90
47660;DHT22;33403;43.608;1.458;2023-09-19T04:22:17;18.70;99.90
47660;DHT22;33403;43.608;1.458;2023-09-19T04:24:42;18.60;99.90
47660;DHT22;33403;43.608;1.458;2023-09-19T04:27:08;18.70;99.90
47660;DHT22;33403;43.608;1.458;2023-09-19T04:29:35;18.70;99.90
47660;DHT22;33403;43.608;1.458;2023-09-19T04:32:00;18.50;99.90
47660;DHT22;33403;43.608;1.458;2023-09-19T04:34:26;18.50;99.90
47660;DHT22;33403;43.608;1.458;2023-09-19T04:36:52;18.40;99.90
47660;DHT22;33403;43.608;1.458;2023-09-19T04:39:18;18.40;99.90
47660;DHT22;33403;43.608;1.458;2023-09-19T04:41:44;18.50;99.90
47660;DHT22;33403;43.608;1.458;2023-09-19T04:44:11;18.50;99.90
47660;DHT22;33403;43.608;1.458;2023-09-19T04:46:39;18.50;99.90
47660;DHT22;33403;43.608;1.458;2023-09-19T04:49:04;18.40;99.90
47660;DHT22;33403;43.608;1.458;2023-09-19T04:51:30;18.50;99.90
47660;DHT22;33403;43.608;1.458;2023-09-19T04:54:00;18.50;99.90
47660;DHT22;33403;43.608;1.458;2023-09-19T04:56:26;18.50;99.90
47660;DHT22;33403;43.608;1.458;2023-09-19T04:58:54;18.50;99.90
47660;DHT22;33403;43.608;1.458;2023-09-19T05:01:19;18.50;99.90
47660;DHT22;33403;43.608;1.458;2023-09-19T05:03:48;18.50;99.90
47660;DHT22;33403;43.608;1.458;2023-09-19T05:06:18;18.50;99.90
47660;DHT22;33403;43.608;1.458;2023-09-19T05:08:44;18.40;99.90
47660;DHT22;33403;43.608;1.458;2023-09-19T05:11:09;18.40;99.90
47660;DHT22;33403;43.608;1.458;2023-09-19T05:13:35;18.40;99.90
47660;DHT22;33403;43.608;1.458;2023-09-19T05:16:01;18.40;99.90
47660;DHT22;33403;43.608;1.458;2023-09-19T05:18:29;18.40;99.90
47660;DHT22;33403;43.608;1.458;2023-09-19T05:20:55;18.40;99.90
47660;DHT22;33403;43.608;1.458;2023-09-19T05:23:21;18.40;99.90
47660;DHT22;33403;43.608;1.458;2023-09-19T05:25:47;18.30;99.90
47660;DHT22;33403;43.608;1.458;2023-09-19T05:28:12;18.30;99.90
47660;DHT22;33403;43.608;1.458;2023-09-19T05:30:40;18.30;99.90
47660;DHT22;33403;43.608;1.458;2023-09-19T05:33:08;18.30;99.90
47660;DHT22;33403;43.608;1.458;2023-09-19T05:35:34;18.30;99.90
47660;DHT22;33403;43.608;1.458;2023-09-19T05:38:03;18.30;99.90
47660;DHT22;33403;43.608;1.458;2023-09-19T05:40:31;18.20;99.90
47660;DHT22;33403;43.608;1.458;2023-09-19T05:42:56;18.20;99.90
47660;DHT22;33403;43.608;1.458;2023-09-19T05:45:22;18.20;99.90
47660;DHT22;33403;43.608;1.458;2023-09-19T05:47:52;18.20;99.90
47660;DHT22;33403;43.608;1.458;2023-09-19T05:50:21;18.20;99.90
47660;DHT22;33403;43.608;1.458;2023-09-19T05:52:54;18.20;99.90
47660;DHT22;33403;43.608;1.458;2023-09-19T05:55:21;18.20;99.90
47660;DHT22;33403;43.608;1.458;2023-09-19T05:57:51;18.20;99.90
47660;DHT22;33403;43.608;1.458;2023-09-19T06:00:21;18.20;99.90
47660;DHT22;33403;43.608;1.458;2023-09-19T06:02:56;18.20;99.90
47660;DHT22;33403;43.608;1.458;2023-09-19T06:05:26;18.10;99.90
47660;DHT22;33403;43.608;1.458;2023-09-19T06:07:58;18.10;99.90
47660;DHT22;33403;43.608;1.458;2023-09-19T06:10:29;18.20;99.90
47660;DHT22;33403;43.608;1.458;2023-09-19T06:12:57;18.20;99.90
47660;DHT22;33403;43.608;1.458;2023-09-19T06:15:23;18.20;99.90
47660;DHT22;33403;43.608;1.458;2023-09-19T06:17:53;18.30;99.90
47660;DHT22;33403;43.608;1.458;2023-09-19T06:20:21;18.30;99.90
47660;DHT22;33403;43.608;1.458;2023-09-19T06:22:48;18.20;99.90
47660;DHT22;33403;43.608;1.458;2023-09-19T06:25:15;18.20;99.90
47660;DHT22;33403;43.608;1.458;2023-09-19T06:27:48;18.00;99.90
47660;DHT22;33403;43.608;1.458;2023-09-19T06:30:14;18.00;99.90
47660;DHT22;33403;43.608;1.458;2023-09-19T06:32:41;18.00;99.90
47660;DHT22;33403;43.608;1.458;2023-09-19T06:35:14;18.10;99.90
47660;DHT22;33403;43.608;1.458;2023-09-19T06:37:41;18.10;99.90
47660;DHT22;33403;43.608;1.458;2023-09-19T06:40:10;18.20;99.90
47660;DHT22;33403;43.608;1.458;2023-09-19T06:42:45;18.10;99.90
47660;DHT22;33403;43.608;1.458;2023-09-19T06:45:11;18.10;99.90
47660;DHT22;33403;43.608;1.458;2023-09-19T06:47:46;18.20;99.90
47660;DHT22;33403;43.608;1.458;2023-09-19T06:50:14;18.20;99.90
47660;DHT22;33403;43.608;1.458;2023-09-19T06:52:41;18.10;99.90
47660;DHT22;33403;43.608;1.458;2023-09-19T06:55:07;18.10;99.90
47660;DHT22;33403;43.608;1.458;2023-09-19T06:57:35;18.10;99.90
47660;DHT22;33403;43.608;1.458;2023-09-19T07:00:01;18.20;99.90
47660;DHT22;33403;43.608;1.458;2023-09-19T07:02:27;18.10;99.90
47660;DHT22;33403;43.608;1.458;2023-09-19T07:04:52;18.20;99.90
47660;DHT22;33403;43.608;1.458;2023-09-19T07:07:18;18.20;99.90
47660;DHT22;33403;43.608;1.458;2023-09-19T07:09:44;18.20;99.90
47660;DHT22;33403;43.608;1.458;2023-09-19T07:12:09;18.30;99.90
47660;DHT22;33403;43.608;1.458;2023-09-19T07:14:36;18.30;99.90
47660;DHT22;33403;43.608;1.458;2023-09-19T07:17:01;18.20;99.90
47660;DHT22;33403;43.608;1.458;2023-09-19T07:19:27;18.20;99.90
47660;DHT22;33403;43.608;1.458;2023-09-19T07:21:56;18.30;99.90
47660;DHT22;33403;43.608;1.458;2023-09-19T07:24:24;18.30;99.90
47660;DHT22;33403;43.608;1.458;2023-09-19T07:26:52;18.40;99.90
47660;DHT22;33403;43.608;1.458;2023-09-19T07:29:17;18.50;99.90
47660;DHT22;33403;43.608;1.458;2023-09-19T07:31:43;18.50;99.90
47660;DHT22;33403;43.608;1.458;2023-09-19T07:34:09;18.50;99.90
47660;DHT22;33403;43.608;1.458;2023-09-19T07:36:35;18.50;99.90
47660;DHT22;33403;43.608;1.458;2023-09-19T07:39:03;18.50;99.90
47660;DHT22;33403;43.608;1.458;2023-09-19T07:41:32;18.60;99.90
47660;DHT22;33403;43.608;1.458;2023-09-19T07:43:58;18.60;99.90
47660;DHT22;33403;43.608;1.458;2023-09-19T07:46:23;18.60;99.90
47660;DHT22;33403;43.608;1.458;2023-09-19T07:48:51;18.70;99.90
47660;DHT22;33403;43.608;1.458;2023-09-19T07:51:17;18.70;99.90
47660;DHT22;33403;43.608;1.458;2023-09-19T07:53:43;18.80;99.90
47660;DHT22;33403;43.608;1.458;2023-09-19T07:56:09;18.90;99.90
47660;DHT22;33403;43.608;1.458;2023-09-19T07:58:38;18.90;99.90
47660;DHT22;33403;43.608;1.458;2023-09-19T08:01:09;18.90;99.90
47660;DHT22;33403;43.608;1.458;2023-09-19T08:03:36;19.00;99.90
47660;DHT22;33403;43.608;1.458;2023-09-19T08:06:06;19.00;99.90
47660;DHT22;33403;43.608;1.458;2023-09-19T08:08:33;19.00;99.90
47660;DHT22;33403;43.608;1.458;2023-09-19T08:11:03;19.10;99.90
47660;DHT22;33403;43.608;1.458;2023-09-19T08:13:35;19.10;99.90
47660;DHT22;33403;43.608;1.458;2023-09-19T08:16:01;19.20;99.90
47660;DHT22;33403;43.608;1.458;2023-09-19T08:18:28;19.20;99.90
47660;DHT22;33403;43.608;1.458;2023-09-19T08:20:55;19.20;99.90
47660;DHT22;33403;43.608;1.458;2023-09-19T08:23:24;19.30;99.90
47660;DHT22;33403;43.608;1.458;2023-09-19T08:25:49;19.30;99.90
47660;DHT22;33403;43.608;1.458;2023-09-19T08:28:15;19.40;99.90
47660;DHT22;33403;43.608;1.458;2023-09-19T08:30:47;19.50;99.90
47660;DHT22;33403;43.608;1.458;2023-09-19T08:33:13;19.70;99.90
47660;DHT22;33403;43.608;1.458;2023-09-19T08:35:41;19.70;99.90
47660;DHT22;33403;43.608;1.458;2023-09-19T08:38:07;19.90;99.90
47660;DHT22;33403;43.608;1.458;2023-09-19T08:40:36;20.20;99.90
47660;DHT22;33403;43.608;1.458;2023-09-19T08:43:02;20.50;99.90
47660;DHT22;33403;43.608;1.458;2023-09-19T08:45:28;20.80;99.90
47660;DHT22;33403;43.608;1.458;2023-09-19T08:50:56;21.10;99.90
47660;DHT22;33403;43.608;1.458;2023-09-19T08:56:29;21.00;99.90
47660;DHT22;33403;43.608;1.458;2023-09-19T08:59:01;20.90;99.90
47660;DHT22;33403;43.608;1.458;2023-09-19T09:01:28;20.90;99.90
47660;DHT22;33403;43.608;1.458;2023-09-19T09:03:55;20.70;99.90
47660;DHT22;33403;43.608;1.458;2023-09-19T09:06:22;20.70;99.90
47660;DHT22;33403;43.608;1.458;2023-09-19T09:08:52;21.10;99.90
47660;DHT22;33403;43.608;1.458;2023-09-19T09:11:18;21.30;99.90
47660;DHT22;33403;43.608;1.458;2023-09-19T09:13:45;21.40;99.90
47660;DHT22;33403;43.608;1.458;2023-09-19T09:16:11;21.30;99.90
47660;DHT22;33403;43.608;1.458;2023-09-19T09:18:38;21.30;99.90
47660;DHT22;33403;43.608;1.458;2023-09-19T09:21:04;21.30;99.90
47660;DHT22;33403;43.608;1.458;2023-09-19T09:23:30;21.30;99.90
47660;DHT22;33403;43.608;1.458;2023-09-19T09:25:59;21.30;99.90
47660;DHT22;33403;43.608;1.458;2023-09-19T09:28:29;21.20;99.90
47660;DHT22;33403;43.608;1.458;2023-09-19T09:30:57;21.10;99.90
47660;DHT22;33403;43.608;1.458;2023-09-19T09:33:24;21.10;99.90
47660;DHT22;33403;43.608;1.458;2023-09-19T09:35:58;21.00;99.90
47660;DHT22;33403;43.608;1.458;2023-09-19T09:38:45;20.90;99.90
47660;DHT22;33403;43.608;1.458;2023-09-19T09:41:12;21.00;99.90
47660;DHT22;33403;43.608;1.458;2023-09-19T09:43:42;21.00;99.90
47660;DHT22;33403;43.608;1.458;2023-09-19T09:46:18;21.00;99.90
47660;DHT22;33403;43.608;1.458;2023-09-19T09:49:05;21.20;99.90
47660;DHT22;33403;43.608;1.458;2023-09-19T09:51:59;21.50;99.90
47660;DHT22;33403;43.608;1.458;2023-09-19T09:54:29;21.70;99.90
47660;DHT22;33403;43.608;1.458;2023-09-19T09:57:06;21.90;99.90
47660;DHT22;33403;43.608;1.458;2023-09-19T09:59:51;22.10;99.90
47660;DHT22;33403;43.608;1.458;2023-09-19T10:02:30;22.20;99.90
47660;DHT22;33403;43.608;1.458;2023-09-19T10:05:12;22.10;99.90
47660;DHT22;33403;43.608;1.458;2023-09-19T10:07:54;22.10;99.90
47660;DHT22;33403;43.608;1.458;2023-09-19T10:10:33;22.00;99.90
47660;DHT22;33403;43.608;1.458;2023-09-19T10:13:12;22.00;99.90
47660;DHT22;33403;43.608;1.458;2023-09-19T10:15:50;22.30;99.90
47660;DHT22;33403;43.608;1.458;2023-09-19T10:18:36;22.50;99.90
47660;DHT22;33403;43.608;1.458;2023-09-19T10:21:04;22.60;99.90
47660;DHT22;33403;43.608;1.458;2023-09-19T10:23:32;22.70;99.90
47660;DHT22;33403;43.608;1.458;2023-09-19T10:26:01;22.70;99.90
47660;DHT22;33403;43.608;1.458;2023-09-19T10:28:27;22.70;99.90
47660;DHT22;33403;43.608;1.458;2023-09-19T10:30:55;22.80;99.90
47660;DHT22;33403;43.608;1.458;2023-09-19T10:33:25;22.80;99.90
47660;DHT22;33403;43.608;1.458;2023-09-19T10:35:58;22.70;99.90
47660;DHT22;33403;43.608;1.458;2023-09-19T10:38:26;22.70;99.90
47660;DHT22;33403;43.608;1.458;2023-09-19T10:40:55;22.70;99.90
47660;DHT22;33403;43.608;1.458;2023-09-19T10:43:26;22.70;99.90
47660;DHT22;33403;43.608;1.458;2023-09-19T10:45:57;22.40;99.90
47660;DHT22;33403;43.608;1.458;2023-09-19T10:48:25;22.20;99.90
47660;DHT22;33403;43.608;1.458;2023-09-19T10:53:56;21.80;99.90
47660;DHT22;33403;43.608;1.458;2023-09-19T10:56:36;21.80;99.90
47660;DHT22;33403;43.608;1.458;2023-09-19T10:59:10;21.80;99.90
47660;DHT22;33403;43.608;1.458;2023-09-19T11:01:43;21.80;99.90
47660;DHT22;33403;43.608;1.458;2023-09-19T11:04:24;22.00;99.90
47660;DHT22;33403;43.608;1.458;2023-09-19T11:07:06;22.10;99.90
47660;DHT22;33403;43.608;1.458;2023-09-19T11:12:26;22.30;99.90
47660;DHT22;33403;43.608;1.458;2023-09-19T11:15:01;22.40;99.90
47660;DHT22;33403;43.608;1.458;2023-09-19T11:17:37;22.60;99.90
47660;DHT22;33403;43.608;1.458;2023-09-19T11:30:51;22.80;99.90
47660;DHT22;33403;43.608;1.458;2023-09-19T11:33:31;22.80;99.90
47660;DHT22;33403;43.608;1.458;2023-09-19T11:36:14;22.80;99.90
47660;DHT22;33403;43.608;1.458;2023-09-19T11:43:47;22.70;99.90
47660;DHT22;33403;43.608;1.458;2023-09-19T11:46:13;22.70;99.90
47660;DHT22;33403;43.608;1.458;2023-09-19T11:48:43;22.70;99.90
47660;DHT22;33403;43.608;1.458;2023-09-19T11:51:42;22.70;99.90
47660;DHT22;33403;43.608;1.458;2023-09-19T11:54:11;22.70;99.90
47660;DHT22;33403;43.608;1.458;2023-09-19T11:56:44;22.70;99.90
47660;DHT22;33403;43.608;1.458;2023-09-19T11:59:11;22.80;99.90
47660;DHT22;33403;43.608;1.458;2023-09-19T12:01:40;23.10;99.90
47660;DHT22;33403;43.608;1.458;2023-09-19T12:04:11;23.20;99.90
47660;DHT22;33403;43.608;1.458;2023-09-19T12:06:37;23.20;99.90
47660;DHT22;33403;43.608;1.458;2023-09-19T12:09:12;23.30;99.90
47660;DHT22;33403;43.608;1.458;2023-09-19T12:11:42;23.20;99.90
47660;DHT22;33403;43.608;1.458;2023-09-19T12:14:09;23.30;99.90
47660;DHT22;33403;43.608;1.458;2023-09-19T12:16:35;23.30;99.90
47660;DHT22;33403;43.608;1.458;2023-09-19T12:19:21;23.30;99.90
47660;DHT22;33403;43.608;1.458;2023-09-19T12:21:57;23.30;99.90
47660;DHT22;33403;43.608;1.458;2023-09-19T12:24:26;23.10;99.90
47660;DHT22;33403;43.608;1.458;2023-09-19T12:27:05;23.00;99.90
47660;DHT22;33403;43.608;1.458;2023-09-19T12:29:52;22.80;99.90
47660;DHT22;33403;43.608;1.458;2023-09-19T12:32:36;22.80;99.90
47660;DHT22;33403;43.608;1.458;2023-09-19T12:35:06;23.00;99.90
47660;DHT22;33403;43.608;1.458;2023-09-19T12:37:36;23.00;99.90
47660;DHT22;33403;43.608;1.458;2023-09-19T12:40:07;23.00;99.90
47660;DHT22;33403;43.608;1.458;2023-09-19T12:42:48;23.00;99.90
47660;DHT22;33403;43.608;1.458;2023-09-19T12:45:15;23.00;99.90
47660;DHT22;33403;43.608;1.458;2023-09-19T12:48:21;23.10;99.90
47660;DHT22;33403;43.608;1.458;2023-09-19T12:51:04;23.20;99.90
47660;DHT22;33403;43.608;1.458;2023-09-19T12:53:36;23.10;99.90
47660;DHT22;33403;43.608;1.458;2023-09-19T12:56:06;23.10;99.90
47660;DHT22;33403;43.608;1.458;2023-09-19T12:58:34;23.20;99.90
47660;DHT22;33403;43.608;1.458;2023-09-19T13:01:01;23.20;99.90
47660;DHT22;33403;43.608;1.458;2023-09-19T13:03:30;23.20;99.90
47660;DHT22;33403;43.608;1.458;2023-09-19T13:06:04;23.40;99.90
47660;DHT22;33403;43.608;1.458;2023-09-19T13:08:31;23.40;99.90
47660;DHT22;33403;43.608;1.458;2023-09-19T13:13:42;23.40;99.90
47660;DHT22;33403;43.608;1.458;2023-09-19T13:16:10;23.40;99.90
47660;DHT22;33403;43.608;1.458;2023-09-19T13:19:06;23.40;99.90
47660;DHT22;33403;43.608;1.458;2023-09-19T13:21:32;23.40;99.90
47660;DHT22;33403;43.608;1.458;2023-09-19T13:24:21;23.30;99.90
47660;DHT22;33403;43.608;1.458;2023-09-19T13:26:49;23.30;99.90
47660;DHT22;33403;43.608;1.458;2023-09-19T13:29:15;23.30;99.90
47660;DHT22;33403;43.608;1.458;2023-09-19T13:31:51;23.30;99.90
47660;DHT22;33403;43.608;1.458;2023-09-19T13:34:18;23.30;99.90
47660;DHT22;33403;43.608;1.458;2023-09-19T13:36:45;23.30;99.90
47660;DHT22;33403;43.608;1.458;2023-09-19T13:39:16;23.30;99.50
47660;DHT22;33403;43.608;1.458;2023-09-19T13:41:45;23.30;99.60
47660;DHT22;33403;43.608;1.458;2023-09-19T13:44:11;23.40;99.30
47660;DHT22;33403;43.608;1.458;2023-09-19T13:46:37;23.40;99.90
47660;DHT22;33403;43.608;1.458;2023-09-19T13:49:03;23.40;99.90
47660;DHT22;33403;43.608;1.458;2023-09-19T13:51:30;23.40;99.90
47660;DHT22;33403;43.608;1.458;2023-09-19T13:53:56;23.40;99.90
47660;DHT22;33403;43.608;1.458;2023-09-19T13:56:22;23.40;99.90
47660;DHT22;33403;43.608;1.458;2023-09-19T13:58:48;23.40;99.90
47660;DHT22;33403;43.608;1.458;2023-09-19T14:01:14;23.40;99.80
47660;DHT22;33403;43.608;1.458;2023-09-19T14:03:40;23.40;99.90
47660;DHT22;33403;43.608;1.458;2023-09-19T14:06:06;23.40;99.90
47660;DHT22;33403;43.608;1.458;2023-09-19T14:08:32;23.40;99.90
47660;DHT22;33403;43.608;1.458;2023-09-19T14:11:05;23.50;97.70
47660;DHT22;33403;43.608;1.458;2023-09-19T14:13:31;23.50;99.90
47660;DHT22;33403;43.608;1.458;2023-09-19T14:15:56;23.50;99.90
47660;DHT22;33403;43.608;1.458;2023-09-19T14:18:22;23.40;99.80
47660;DHT22;33403;43.608;1.458;2023-09-19T14:20:47;23.50;98.60
47660;DHT22;33403;43.608;1.458;2023-09-19T14:23:13;23.50;95.60
47660;DHT22;33403;43.608;1.458;2023-09-19T14:25:39;23.60;96.70
47660;DHT22;33403;43.608;1.458;2023-09-19T14:28:05;23.60;97.40
47660;DHT22;33403;43.608;1.458;2023-09-19T14:30:33;23.60;97.50
47660;DHT22;33403;43.608;1.458;2023-09-19T14:32:58;23.50;96.10
47660;DHT22;33403;43.608;1.458;2023-09-19T14:35:24;23.50;99.00
47660;DHT22;33403;43.608;1.458;2023-09-19T14:37:50;23.40;96.80
47660;DHT22;33403;43.608;1.458;2023-09-19T14:40:16;23.40;97.00
47660;DHT22;33403;43.608;1.458;2023-09-19T14:42:43;23.40;99.20
47660;DHT22;33403;43.608;1.458;2023-09-19T14:45:11;23.40;96.00
47660;DHT22;33403;43.608;1.458;2023-09-19T14:47:37;23.50;95.60
47660;DHT22;33403;43.608;1.458;2023-09-19T14:50:03;23.40;98.90
47660;DHT22;33403;43.608;1.458;2023-09-19T14:52:34;23.40;99.30
47660;DHT22;33403;43.608;1.458;2023-09-19T14:55:01;23.40;95.80
47660;DHT22;33403;43.608;1.458;2023-09-19T14:57:27;23.50;97.30
47660;DHT22;33403;43.608;1.458;2023-09-19T14:59:53;23.40;97.90
47660;DHT22;33403;43.608;1.458;2023-09-19T15:02:19;23.40;99.40
47660;DHT22;33403;43.608;1.458;2023-09-19T15:04:46;23.40;97.00
47660;DHT22;33403;43.608;1.458;2023-09-19T15:07:13;23.40;97.50
47660;DHT22;33403;43.608;1.458;2023-09-19T15:09:41;23.40;98.00
47660;DHT22;33403;43.608;1.458;2023-09-19T15:12:06;23.40;97.80
47660;DHT22;33403;43.608;1.458;2023-09-19T15:14:32;23.60;95.30
47660;DHT22;33403;43.608;1.458;2023-09-19T15:16:58;23.50;97.40
47660;DHT22;33403;43.608;1.458;2023-09-19T15:19:23;23.50;96.20
47660;DHT22;33403;43.608;1.458;2023-09-19T15:21:49;23.40;98.60
47660;DHT22;33403;43.608;1.458;2023-09-19T15:24:15;23.40;97.70
47660;DHT22;33403;43.608;1.458;2023-09-19T15:26:42;23.40;98.20
47660;DHT22;33403;43.608;1.458;2023-09-19T15:29:09;23.40;96.50
47660;DHT22;33403;43.608;1.458;2023-09-19T15:31:35;23.40;99.10
47660;DHT22;33403;43.608;1.458;2023-09-19T15:34:04;23.40;99.10
47660;DHT22;33403;43.608;1.458;2023-09-19T15:36:31;23.40;97.10
47660;DHT22;33403;43.608;1.458;2023-09-19T15:39:04;23.40;97.20
47660;DHT22;33403;43.608;1.458;2023-09-19T15:41:33;23.40;97.40
47660;DHT22;33403;43.608;1.458;2023-09-19T15:44:01;23.30;97.70
47660;DHT22;33403;43.608;1.458;2023-09-19T15:46:31;23.40;94.70
47660;DHT22;33403;43.608;1.458;2023-09-19T15:48:58;23.40;95.00
47660;DHT22;33403;43.608;1.458;2023-09-19T15:51:25;23.40;96.80
47660;DHT22;33403;43.608;1.458;2023-09-19T15:53:53;23.40;97.00
47660;DHT22;33403;43.608;1.458;2023-09-19T15:56:20;23.40;97.40
47660;DHT22;33403;43.608;1.458;2023-09-19T15:58:50;23.30;97.30
47660;DHT22;33403;43.608;1.458;2023-09-19T16:01:16;23.30;97.50
47660;DHT22;33403;43.608;1.458;2023-09-19T16:03:47;23.30;96.00
47660;DHT22;33403;43.608;1.458;2023-09-19T16:06:15;23.30;94.30
47660;DHT22;33403;43.608;1.458;2023-09-19T16:08:45;23.30;96.00
47660;DHT22;33403;43.608;1.458;2023-09-19T16:11:11;23.30;97.20
47660;DHT22;33403;43.608;1.458;2023-09-19T16:13:38;23.20;97.00
47660;DHT22;33403;43.608;1.458;2023-09-19T16:16:04;23.20;97.00
47660;DHT22;33403;43.608;1.458;2023-09-19T16:18:30;23.10;95.80
47660;DHT22;33403;43.608;1.458;2023-09-19T16:21:06;23.10;93.80
47660;DHT22;33403;43.608;1.458;2023-09-19T16:23:33;23.10;95.20
47660;DHT22;33403;43.608;1.458;2023-09-19T16:28:31;23.00;98.00
47660;DHT22;33403;43.608;1.458;2023-09-19T16:31:00;23.00;93.90